Time;durP1;ratioP1;P1;durP2;ratioP2;P2;SDS_P1;SDS_P2;PMS_P1;PMS_P2;Temp;Humidity;BMP_temperature;BMP_pressure;BME280_temperature;BME280_humidity;BME280_pressure;Samples;Min_cycle;Max_cycle;Signal;HPM_P1;HPM_P2
2023/03/12 00:00:49;;;;;;;;;;;;;;;15.84;49.40;99505.66;5068681;28;1139;-48
2023/03/12 00:03:15;;;;;;;;;;;;;;;15.61;49.87;99496.41;5055523;28;1087;-47
2023/03/12 00:05:41;;;;;;;;;;;;;;;15.44;50.31;99499.69;5057822;28;1910;-51
2023/03/12 00:08:07;;;;;;;;;;;;;;;15.48;50.35;99490.56;5046042;28;1215;-50
2023/03/12 00:10:32;;;;;;;;;;;;;;;17.07;46.37;99478.63;5077935;28;1051;-51
2023/03/12 00:12:58;;;;;;;;;;;;;;;16.32;47.96;99479.88;5078394;28;1063;-50
2023/03/12 00:15:24;;;;;;;;;;;;;;;15.80;49.41;99480.78;5078414;28;1129;-50
2023/03/12 00:17:49;;;;;;;;;;;;;;;15.57;49.90;99490.69;5065995;28;856;-50
2023/03/12 00:20:15;;;;;;;;;;;;;;;15.42;50.18;99496.41;5074864;28;1111;-49
2023/03/12 00:22:41;;;;;;;;;;;;;;;15.32;50.17;99497.38;5078338;28;1102;-48
2023/03/12 00:25:07;;;;;;;;;;;;;;;16.71;47.04;99509.56;5078103;28;1952;-50
2023/03/12 00:27:32;;;;;;;;;;;;;;;16.84;46.49;99498.88;5078187;28;1109;-51
2023/03/12 00:29:58;;;;;;;;;;;;;;;16.02;48.61;99512.19;5065221;28;1078;-52
2023/03/12 00:32:23;;;;;;;;;;;;;;;15.72;49.32;99506.91;5040593;28;1209;-52
2023/03/12 00:34:51;;;;;;;;;;;;;;;15.54;49.76;99499.50;5060113;28;1191;-50
2023/03/12 00:37:17;;;;;;;;;;;;;;;15.35;50.07;99508.56;5078303;28;1185;-52
2023/03/12 00:39:42;;;;;;;;;;;;;;;16.11;48.37;99506.84;5078051;28;1211;-50
2023/03/12 00:42:08;;;;;;;;;;;;;;;17.30;45.28;99508.91;5064661;28;874;-52
2023/03/12 00:44:34;;;;;;;;;;;;;;;16.21;47.85;99517.63;5073499;28;1686;-52
2023/03/12 00:46:59;;;;;;;;;;;;;;;15.81;48.77;99519.94;5078071;28;1906;-51
2023/03/12 00:49:25;;;;;;;;;;;;;;;15.62;49.50;99530.91;5059517;28;1091;-50
2023/03/12 00:51:51;;;;;;;;;;;;;;;15.38;49.69;99526.34;5077951;28;877;-51
2023/03/12 00:54:17;;;;;;;;;;;;;;;15.28;49.88;99534.69;5047698;28;1355;-51
2023/03/12 00:56:44;;;;;;;;;;;;;;;16.60;46.83;99549.28;5078587;28;1288;-53
2023/03/12 00:59:09;;;;;;;;;;;;;;;16.82;46.08;99542.31;5058966;28;1146;-51
2023/03/12 01:01:35;;;;;;;;;;;;;;;16.03;48.35;99533.03;5059860;28;1217;-52
2023/03/12 01:04:00;;;;;;;;;;;;;;;15.71;48.95;99535.44;5077854;28;1124;-53
2023/03/12 01:06:26;;;;;;;;;;;;;;;15.52;49.66;99534.63;5063313;28;1985;-53
2023/03/12 01:08:51;;;;;;;;;;;;;;;15.39;49.96;99541.66;5059030;28;1115;-48
2023/03/12 01:11:18;;;;;;;;;;;;;;;15.80;49.07;99548.50;5059602;28;1445;-49
2023/03/12 01:13:43;;;;;;;;;;;;;;;17.20;45.42;99553.88;5063809;28;1042;-51
2023/03/12 01:16:09;;;;;;;;;;;;;;;16.15;47.77;99560.78;5059603;28;1114;-51
2023/03/12 01:18:34;;;;;;;;;;;;;;;15.76;49.09;99564.69;5062257;28;1087;-52
2023/03/12 01:21:00;;;;;;;;;;;;;;;15.52;49.67;99592.97;5065212;28;1115;-50
2023/03/12 01:23:26;;;;;;;;;;;;;;;15.60;49.26;99591.50;5076105;28;1210;-50
2023/03/12 01:25:54;;;;;;;;;;;;;;;17.17;45.71;99603.16;5065356;28;1902;-49
2023/03/12 01:28:20;;;;;;;;;;;;;;;16.22;47.68;99612.53;5076695;28;1078;-50
2023/03/12 01:30:46;;;;;;;;;;;;;;;15.76;49.10;99610.47;5061515;28;907;-51
2023/03/12 01:33:11;;;;;;;;;;;;;;;15.53;49.71;99622.00;5053815;28;1082;-48
2023/03/12 01:35:38;;;;;;;;;;;;;;;15.34;50.23;99632.13;5077065;28;1023;-46
2023/03/12 01:38:04;;;;;;;;;;;;;;;16.55;47.14;99620.72;5058967;28;1237;-48
2023/03/12 01:40:31;;;;;;;;;;;;;;;16.52;47.20;99635.91;5076982;28;1035;-47
2023/03/12 01:42:57;;;;;;;;;;;;;;;15.89;48.87;99637.16;5062615;28;888;-49
2023/03/12 01:45:41;;;;;;;;;;;;;;;15.58;49.63;99632.06;5058589;28;1971;-50
2023/03/12 01:48:07;;;;;;;;;;;;;;;15.43;50.11;99651.44;5076994;28;1066;-49
2023/03/12 01:50:33;;;;;;;;;;;;;;;16.65;47.33;99663.66;5058687;28;1355;-50
2023/03/12 01:52:58;;;;;;;;;;;;;;;16.83;46.71;99653.72;5058914;28;1203;-49
2023/03/12 01:55:25;;;;;;;;;;;;;;;16.03;48.69;99654.50;5050249;28;1685;-51
2023/03/12 01:57:51;;;;;;;;;;;;;;;15.76;49.50;99654.31;5058324;28;1161;-49
2023/03/12 02:00:18;;;;;;;;;;;;;;;15.51;50.02;99664.50;5058778;28;1103;-51
2023/03/12 02:02:44;;;;;;;;;;;;;;;15.37;50.35;99648.75;5058830;28;1273;-49
2023/03/12 02:05:32;;;;;;;;;;;;;;;15.95;49.24;99655.16;5057930;28;1917;-48
2023/03/12 02:07:58;;;;;;;;;;;;;;;17.13;46.05;99641.38;5034630;28;1261;-51
2023/03/12 02:10:24;;;;;;;;;;;;;;;16.15;48.47;99632.09;5057148;28;1218;-49
2023/03/12 02:12:50;;;;;;;;;;;;;;;15.78;49.40;99635.63;5021922;28;1180;-50
2023/03/12 02:15:16;;;;;;;;;;;;;;;15.53;50.01;99621.19;5053294;28;1288;-50
2023/03/12 02:17:42;;;;;;;;;;;;;;;15.36;50.23;99614.28;5054973;28;1211;-49
2023/03/12 02:20:15;;;;;;;;;;;;;;;16.56;47.40;99612.22;5070735;28;1118;-49
2023/03/12 02:22:41;;;;;;;;;;;;;;;16.82;46.47;99614.50;5067129;28;1102;-49
2023/03/12 02:25:26;;;;;;;;;;;;;;;16.02;48.60;99619.13;5037171;28;1902;-48
2023/03/12 02:27:51;;;;;;;;;;;;;;;15.66;49.58;99623.19;5076408;28;1159;-51
2023/03/12 02:30:17;;;;;;;;;;;;;;;15.51;49.99;99631.63;5050013;28;1435;-51
2023/03/12 02:32:43;;;;;;;;;;;;;;;15.33;50.28;99653.22;5026326;28;1227;-49
2023/03/12 02:35:09;;;;;;;;;;;;;;;15.22;50.51;99668.94;5041366;28;1528;-50
2023/03/12 02:37:35;;;;;;;;;;;;;;;16.89;46.84;99680.03;5058135;28;1340;-52
2023/03/12 02:40:04;;;;;;;;;;;;;;;16.84;46.63;99691.06;5058059;28;1106;-52
2023/03/12 02:42:31;;;;;;;;;;;;;;;16.04;48.68;99705.47;5048670;28;1318;-51
2023/03/12 02:44:57;;;;;;;;;;;;;;;15.73;49.37;99721.50;5039615;28;1980;-52
2023/03/12 02:47:23;;;;;;;;;;;;;;;15.53;49.78;99728.84;5075854;28;1105;-52
2023/03/12 02:49:48;;;;;;;;;;;;;;;15.36;50.22;99729.31;5057436;28;1160;-50
2023/03/12 02:52:14;;;;;;;;;;;;;;;16.49;47.69;99720.72;5075766;28;1066;-53
2023/03/12 02:54:41;;;;;;;;;;;;;;;17.00;46.27;99717.16;5053169;28;1485;-51
2023/03/12 02:57:06;;;;;;;;;;;;;;;16.08;48.49;99712.00;5057604;28;1227;-53
2023/03/12 02:59:33;;;;;;;;;;;;;;;15.77;49.26;99721.72;5057993;28;1139;-52
2023/03/12 03:01:59;;;;;;;;;;;;;;;15.55;50.00;99718.41;5057964;28;1270;-52
2023/03/12 03:04:25;;;;;;;;;;;;;;;15.71;49.67;99720.97;5057702;28;1172;-50
2023/03/12 03:06:51;;;;;;;;;;;;;;;17.13;46.07;99733.97;5065565;28;1902;-51
2023/03/12 03:09:17;;;;;;;;;;;;;;;16.15;48.48;99749.22;5033192;28;1231;-50
2023/03/12 03:11:42;;;;;;;;;;;;;;;15.72;49.55;99758.22;5029824;28;1139;-49
2023/03/12 03:14:09;;;;;;;;;;;;;;;15.47;50.08;99765.63;5056274;28;1430;-51
2023/03/12 03:16:35;;;;;;;;;;;;;;;16.37;48.21;99765.91;5046012;28;1511;-50
2023/03/12 03:19:01;;;;;;;;;;;;;;;17.12;46.05;99774.34;5044704;28;1044;-49
2023/03/12 03:21:26;;;;;;;;;;;;;;;16.21;48.42;99764.50;5067523;28;1127;-50
2023/03/12 03:23:52;;;;;;;;;;;;;;;15.82;49.41;99765.53;5075109;28;1133;-47
2023/03/12 03:26:18;;;;;;;;;;;;;;;15.57;50.06;99772.91;5075598;28;1910;-51
2023/03/12 03:28:43;;;;;;;;;;;;;;;15.38;50.39;99770.94;5075463;28;1047;-48
2023/03/12 03:31:09;;;;;;;;;;;;;;;15.85;49.50;99763.03;5046636;28;1159;-51
2023/03/12 03:33:37;;;;;;;;;;;;;;;17.24;46.05;99762.88;5055795;28;1194;-50
2023/03/12 03:36:04;;;;;;;;;;;;;;;16.30;48.08;99761.88;5057272;28;1063;-51
2023/03/12 03:38:33;;;;;;;;;;;;;;;15.82;49.38;99769.13;5057742;28;1444;-51
2023/03/12 03:40:59;;;;;;;;;;;;;;;15.59;49.88;99783.63;5057093;28;1275;-50
2023/03/12 03:43:25;;;;;;;;;;;;;;;15.31;50.37;99789.63;5044957;28;1298;-46
2023/03/12 03:46:01;;;;;;;;;;;;;;;15.27;50.40;99807.75;5072057;28;1965;-50
2023/03/12 03:48:27;;;;;;;;;;;;;;;16.54;47.82;99794.75;5037305;28;1190;-48
2023/03/12 03:50:53;;;;;;;;;;;;;;;16.82;46.69;99792.16;5061198;28;1130;-52
2023/03/12 03:53:18;;;;;;;;;;;;;;;15.98;49.00;99783.44;5061123;28;1123;-51
2023/03/12 03:55:45;;;;;;;;;;;;;;;15.66;49.83;99782.13;5046641;28;1304;-50
2023/03/12 03:58:11;;;;;;;;;;;;;;;15.45;50.05;99791.69;5053896;28;1246;-49
2023/03/12 04:00:37;;;;;;;;;;;;;;;15.24;50.66;99791.91;5041800;28;1132;-47
2023/03/12 04:03:02;;;;;;;;;;;;;;;16.00;48.93;99805.88;5078685;28;1204;-51
2023/03/12 04:05:28;;;;;;;;;;;;;;;17.00;46.35;99817.94;5078687;28;1905;-50
2023/03/12 04:07:54;;;;;;;;;;;;;;;16.03;48.76;99824.53;5045803;28;1339;-50
2023/03/12 04:10:23;;;;;;;;;;;;;;;15.66;49.74;99841.63;5054817;28;1276;-46
2023/03/12 04:12:49;;;;;;;;;;;;;;;15.44;50.10;99858.56;5061018;28;1167;-50
2023/03/12 04:15:14;;;;;;;;;;;;;;;16.37;48.19;99858.38;5060382;28;1233;-54
2023/03/12 04:17:40;;;;;;;;;;;;;;;16.65;47.17;99853.03;5060406;28;1236;-49
2023/03/12 04:20:08;;;;;;;;;;;;;;;15.92;49.06;99850.41;5044979;28;1402;-49
2023/03/12 04:22:34;;;;;;;;;;;;;;;15.60;49.78;99856.47;5060977;28;1408;-61
2023/03/12 04:25:00;;;;;;;;;;;;;;;15.40;50.20;99883.78;5056557;28;1906;-54
2023/03/12 04:27:26;;;;;;;;;;;;;;;16.47;47.88;99912.31;5078833;28;1305;-55
2023/03/12 04:29:51;;;;;;;;;;;;;;;16.76;46.75;99929.47;5060696;28;1187;-56
2023/03/12 04:32:17;;;;;;;;;;;;;;;15.90;48.79;99940.34;5043559;28;1431;-56
2023/03/12 04:34:43;;;;;;;;;;;;;;;15.63;49.68;99951.84;5054319;28;1626;-55
2023/03/12 04:37:12;;;;;;;;;;;;;;;15.42;49.98;99951.16;5060219;28;1277;-56
2023/03/12 04:39:39;;;;;;;;;;;;;;;16.09;48.68;99940.44;5060712;28;1269;-55
2023/03/12 04:42:04;;;;;;;;;;;;;;;17.02;46.00;99942.88;5060452;28;1369;-55
2023/03/12 04:44:31;;;;;;;;;;;;;;;16.05;48.35;99964.88;5039530;28;1265;-56
2023/03/12 04:46:56;;;;;;;;;;;;;;;15.70;49.28;99985.19;5057827;28;1910;-59
2023/03/12 04:49:24;;;;;;;;;;;;;;;15.48;49.85;99988.38;5055809;28;1394;-57
2023/03/12 04:51:50;;;;;;;;;;;;;;;15.51;49.96;99979.59;5044255;28;1335;-61
2023/03/12 04:54:19;;;;;;;;;;;;;;;17.15;46.11;99967.97;5056093;28;1214;-61
2023/03/12 04:56:46;;;;;;;;;;;;;;;16.33;47.92;99973.38;5038345;28;929;-58
2023/03/12 04:59:11;;;;;;;;;;;;;;;15.83;49.03;99972.78;5050082;28;1106;-51
2023/03/12 05:01:38;;;;;;;;;;;;;;;15.52;49.74;99973.00;5055428;28;1398;-51
2023/03/12 05:04:10;;;;;;;;;;;;;;;15.35;50.03;99976.97;5056634;28;1339;-51
2023/03/12 05:06:36;;;;;;;;;;;;;;;15.59;50.02;99997.34;5057196;28;1902;-55
2023/03/12 05:09:02;;;;;;;;;;;;;;;17.17;46.17;99995.97;5036813;28;1232;-51
2023/03/12 05:11:29;;;;;;;;;;;;;;;16.40;47.61;99998.53;5056307;28;1216;-51
2023/03/12 05:13:54;;;;;;;;;;;;;;;15.89;48.96;100001.78;5055217;28;2112;-54
2023/03/12 05:16:21;;;;;;;;;;;;;;;15.60;49.68;99997.06;5056140;28;1299;-51
2023/03/12 05:18:47;;;;;;;;;;;;;;;15.44;50.09;100006.50;5041934;28;1122;-54
2023/03/12 05:21:15;;;;;;;;;;;;;;;15.45;50.28;100008.13;5043960;28;1225;-55
2023/03/12 05:23:41;;;;;;;;;;;;;;;17.12;45.89;100013.31;5057578;28;1276;-52
2023/03/12 05:26:21;;;;;;;;;;;;;;;16.23;48.14;100020.13;5055868;28;1977;-51
2023/03/12 05:28:48;;;;;;;;;;;;;;;15.73;49.35;100018.31;5055648;28;1102;-47
2023/03/12 05:31:15;;;;;;;;;;;;;;;15.46;50.08;100023.44;5051755;28;1414;-50
2023/03/12 05:33:41;;;;;;;;;;;;;;;15.33;50.35;100025.75;5036310;28;1216;-49
2023/03/12 05:36:08;;;;;;;;;;;;;;;16.08;48.55;100030.13;5046654;28;1134;-48
2023/03/12 05:38:33;;;;;;;;;;;;;;;16.90;46.33;100033.09;5051733;28;1219;-51
2023/03/12 05:40:59;;;;;;;;;;;;;;;16.03;48.45;100041.16;5046612;28;1207;-54
2023/03/12 05:43:28;;;;;;;;;;;;;;;15.65;49.55;100051.00;5049989;28;1213;-55
2023/03/12 05:45:57;;;;;;;;;;;;;;;15.40;49.84;100056.38;5035628;28;1902;-51
2023/03/12 05:48:22;;;;;;;;;;;;;;;15.28;50.41;100049.56;5036836;28;1044;-47
2023/03/12 05:50:48;;;;;;;;;;;;;;;16.83;46.83;100065.56;5047321;28;1268;-48
2023/03/12 05:53:14;;;;;;;;;;;;;;;16.51;47.24;100078.81;5055789;28;1321;-46
2023/03/12 05:55:41;;;;;;;;;;;;;;;15.87;48.84;100089.00;5050761;28;1189;-54
2023/03/12 05:58:07;;;;;;;;;;;;;;;15.60;49.49;100092.97;5022365;28;1282;-49
2023/03/12 06:00:36;;;;;;;;;;;;;;;15.42;50.12;100093.59;5048907;28;1216;-51
2023/03/12 06:03:04;;;;;;;;;;;;;;;16.86;46.51;100095.22;5035563;28;1362;-50
2023/03/12 06:05:30;;;;;;;;;;;;;;;16.64;47.04;100096.53;5049953;28;1898;-50
2023/03/12 06:07:55;;;;;;;;;;;;;;;15.99;48.48;100096.84;5048199;28;1210;-51
2023/03/12 06:10:21;;;;;;;;;;;;;;;15.67;49.37;100101.69;5036216;28;1144;-52
2023/03/12 06:12:47;;;;;;;;;;;;;;;16.11;49.17;100100.03;5055437;28;1604;-50
2023/03/12 06:15:12;;;;;;;;;;;;;;;16.25;48.85;100098.25;5055024;28;1175;-46
2023/03/12 06:17:38;;;;;;;;;;;;;;;17.33;46.99;100112.78;5055329;28;1317;-50
2023/03/12 06:20:04;;;;;;;;;;;;;;;18.20;45.35;100110.72;5046882;28;1238;-51
2023/03/12 06:22:30;;;;;;;;;;;;;;;16.52;48.73;100123.53;5044371;28;1055;-52
2023/03/12 06:24:56;;;;;;;;;;;;;;;16.13;48.23;100125.28;5056264;28;1135;-49
2023/03/12 06:27:22;;;;;;;;;;;;;;;15.84;47.68;100127.94;5055254;28;1981;-50
2023/03/12 06:29:48;;;;;;;;;;;;;;;17.29;47.40;100128.22;5056298;28;1261;-49
2023/03/12 06:32:13;;;;;;;;;;;;;;;16.17;48.87;100134.56;5047282;28;1052;-49
2023/03/12 06:34:39;;;;;;;;;;;;;;;16.78;48.40;100140.59;5050496;28;1036;-52
2023/03/12 06:37:05;;;;;;;;;;;;;;;16.95;48.02;100140.16;5056193;28;1074;-53
2023/03/12 06:39:30;;;;;;;;;;;;;;;16.25;48.08;100146.84;5055755;28;1121;-51
2023/03/12 06:41:56;;;;;;;;;;;;;;;17.93;46.34;100147.19;5056326;28;1066;-49
2023/03/12 06:44:21;;;;;;;;;;;;;;;16.73;48.15;100146.97;5053357;28;1129;-52
2023/03/12 06:46:47;;;;;;;;;;;;;;;16.24;48.02;100143.28;5062850;28;1902;-50
2023/03/12 06:49:13;;;;;;;;;;;;;;;17.26;47.78;100146.13;5075457;28;1041;-50
2023/03/12 06:51:38;;;;;;;;;;;;;;;16.43;48.34;100151.59;5063009;28;1333;-49
2023/03/12 06:54:04;;;;;;;;;;;;;;;16.92;48.39;100146.25;5075825;28;1091;-49
2023/03/12 06:56:30;;;;;;;;;;;;;;;17.32;47.54;100162.53;5067011;28;847;-49
2023/03/12 06:58:55;;;;;;;;;;;;;;;16.50;48.12;100167.75;5069324;28;1068;-46
2023/03/12 07:01:21;;;;;;;;;;;;;;;17.96;46.23;100165.84;5048817;28;1020;-49
2023/03/12 07:03:46;;;;;;;;;;;;;;;16.93;48.13;100170.66;5062646;28;1030;-50
2023/03/12 07:06:15;;;;;;;;;;;;;;;16.49;47.87;100173.53;5055873;28;1906;-49
2023/03/12 07:08:41;;;;;;;;;;;;;;;16.57;47.78;100183.88;5037758;28;1135;-44
2023/03/12 07:11:07;;;;;;;;;;;;;;;17.02;47.97;100183.78;5055733;28;1076;-50
2023/03/12 07:13:33;;;;;;;;;;;;;;;16.49;47.69;100190.00;5056017;28;1100;-48
2023/03/12 07:15:58;;;;;;;;;;;;;;;16.80;48.21;100198.75;5055808;28;1294;-49
2023/03/12 07:18:24;;;;;;;;;;;;;;;16.73;48.02;100204.63;5057307;28;1064;-44
2023/03/12 07:20:49;;;;;;;;;;;;;;;17.65;46.98;100199.22;5059421;28;1084;-47
2023/03/12 07:23:15;;;;;;;;;;;;;;;18.34;45.35;100196.09;5041800;28;1241;-45
2023/03/12 07:25:41;;;;;;;;;;;;;;;17.06;47.64;100215.84;5060098;28;1979;-47
2023/03/12 07:28:06;;;;;;;;;;;;;;;16.64;47.39;100217.31;5059912;28;1051;-47
2023/03/12 07:30:32;;;;;;;;;;;;;;;16.40;46.65;100226.28;5059587;28;1179;-45
2023/03/12 07:33:01;;;;;;;;;;;;;;;17.38;47.23;100228.16;5059453;28;1187;-44
2023/03/12 07:35:27;;;;;;;;;;;;;;;16.62;47.56;100225.03;5059919;28;1092;-43
2023/03/12 07:37:52;;;;;;;;;;;;;;;16.29;47.33;100235.69;5059955;28;1216;-45
2023/03/12 07:40:18;;;;;;;;;;;;;;;16.16;46.37;100239.91;5059451;28;1124;-43
2023/03/12 07:42:43;;;;;;;;;;;;;;;16.11;45.81;100241.84;5059100;28;1171;-46
2023/03/12 07:45:11;;;;;;;;;;;;;;;16.96;46.94;100246.19;5041033;28;1910;-47
2023/03/12 07:47:36;;;;;;;;;;;;;;;16.25;47.38;100246.41;5059421;28;1202;-44
2023/03/12 07:50:02;;;;;;;;;;;;;;;17.83;46.28;100240.81;5059501;28;1179;-44
2023/03/12 07:52:27;;;;;;;;;;;;;;;17.01;47.74;100251.63;5058573;28;953;-44
2023/03/12 07:54:55;;;;;;;;;;;;;;;16.54;47.19;100247.59;5059195;28;1155;-43
2023/03/12 07:57:21;;;;;;;;;;;;;;;16.29;46.87;100248.59;5059427;28;1144;-44
2023/03/12 07:59:46;;;;;;;;;;;;;;;16.86;47.69;100260.78;5059128;28;1163;-44
2023/03/12 08:02:12;;;;;;;;;;;;;;;16.37;47.73;100267.22;5059305;28;1132;-45
2023/03/12 08:04:37;;;;;;;;;;;;;;;17.03;47.54;100267.81;5059267;28;1106;-45
2023/03/12 08:07:03;;;;;;;;;;;;;;;16.62;47.53;100271.69;5059069;28;1905;-44
2023/03/12 08:09:29;;;;;;;;;;;;;;;16.96;47.50;100270.88;5059050;28;903;-46
2023/03/12 08:11:54;;;;;;;;;;;;;;;17.81;46.07;100287.03;5059041;28;1075;-44
2023/03/12 08:14:20;;;;;;;;;;;;;;;16.74;47.51;100283.09;5058931;28;1008;-44
2023/03/12 08:16:45;;;;;;;;;;;;;;;16.39;47.14;100282.25;5058637;28;1021;-46
2023/03/12 08:19:11;;;;;;;;;;;;;;;17.00;47.59;100285.69;5058751;28;1142;-48
2023/03/12 08:21:36;;;;;;;;;;;;;;;16.72;47.75;100285.34;5058497;28;1092;-49
2023/03/12 08:24:02;;;;;;;;;;;;;;;16.42;47.43;100298.19;5058373;28;1148;-45
2023/03/12 08:26:28;;;;;;;;;;;;;;;17.54;46.49;100304.94;5059091;28;1979;-44
2023/03/12 08:28:53;;;;;;;;;;;;;;;16.67;47.57;100304.56;5058237;28;1008;-44
2023/03/12 08:31:19;;;;;;;;;;;;;;;16.40;47.14;100308.59;5057956;28;1040;-44
2023/03/12 08:33:45;;;;;;;;;;;;;;;16.39;47.25;100306.94;5058039;28;1033;-46
2023/03/12 08:36:11;;;;;;;;;;;;;;;16.91;47.31;100314.88;5058521;28;1100;-44
2023/03/12 08:38:36;;;;;;;;;;;;;;;16.40;47.22;100319.56;5058596;28;1111;-44
2023/03/12 08:41:02;;;;;;;;;;;;;;;17.73;46.05;100327.81;5058543;28;1045;-46
2023/03/12 08:43:28;;;;;;;;;;;;;;;16.82;47.38;100333.84;5058224;28;1119;-44
2023/03/12 08:45:54;;;;;;;;;;;;;;;16.34;47.28;100334.44;5058004;28;1906;-43
2023/03/12 08:48:20;;;;;;;;;;;;;;;16.23;46.58;100339.16;5057819;28;1036;-47
2023/03/12 08:50:45;;;;;;;;;;;;;;;16.87;47.19;100346.72;5058260;28;1044;-46
2023/03/12 08:53:11;;;;;;;;;;;;;;;16.60;47.47;100353.50;5058027;28;1128;-43
2023/03/12 08:55:36;;;;;;;;;;;;;;;16.29;46.96;100359.16;5058412;28;1191;-47
2023/03/12 08:58:02;;;;;;;;;;;;;;;16.29;47.40;100367.38;5057714;28;1039;-43
2023/03/12 09:00:28;;;;;;;;;;;;;;;16.97;47.14;100367.81;5058190;28;1060;-46
2023/03/12 09:02:56;;;;;;;;;;;;;;;16.27;47.53;100368.75;5057988;28;1311;-49
2023/03/12 09:05:23;;;;;;;;;;;;;;;16.04;46.83;100371.88;5057896;28;1918;-45
2023/03/12 09:07:49;;;;;;;;;;;;;;;16.69;46.95;100368.28;5057662;28;1086;-48
2023/03/12 09:10:14;;;;;;;;;;;;;;;16.74;47.18;100376.47;5057925;28;1158;-49
2023/03/12 09:12:40;;;;;;;;;;;;;;;16.28;46.94;100371.22;5057645;28;1114;-47
2023/03/12 09:15:06;;;;;;;;;;;;;;;17.67;45.89;100378.50;5057763;28;1067;-45
2023/03/12 09:17:32;;;;;;;;;;;;;;;16.54;47.50;100373.84;5057451;28;1072;-48
2023/03/12 09:19:57;;;;;;;;;;;;;;;16.29;46.97;100375.63;5057749;28;1056;-47
2023/03/12 09:22:23;;;;;;;;;;;;;;;17.39;46.30;100386.44;5057038;28;842;-47
2023/03/12 09:24:48;;;;;;;;;;;;;;;16.51;47.49;100388.97;5057479;28;1114;-45
2023/03/12 09:27:14;;;;;;;;;;;;;;;16.28;46.63;100390.44;5057254;28;1909;-45
2023/03/12 09:29:40;;;;;;;;;;;;;;;17.44;45.97;100394.63;5057126;28;1032;-46
2023/03/12 09:32:06;;;;;;;;;;;;;;;16.47;47.40;100393.38;5057438;28;1116;-49
2023/03/12 09:34:31;;;;;;;;;;;;;;;16.24;46.71;100389.34;5057211;28;958;-46
2023/03/12 09:36:57;;;;;;;;;;;;;;;16.26;46.93;100389.91;5057186;28;1053;-48
2023/03/12 09:39:22;;;;;;;;;;;;;;;16.93;46.62;100404.09;5057362;28;1131;-43
2023/03/12 09:41:48;;;;;;;;;;;;;;;16.29;47.19;100407.72;5057407;28;1211;-48
2023/03/12 09:44:16;;;;;;;;;;;;;;;16.08;46.55;100403.13;5056694;28;1473;-45
2023/03/12 09:46:44;;;;;;;;;;;;;;;17.56;45.42;100412.69;5056434;28;1898;-46
2023/03/12 09:49:10;;;;;;;;;;;;;;;16.52;47.18;100411.72;5039488;28;1148;-48
2023/03/12 09:51:40;;;;;;;;;;;;;;;17.10;46.87;100417.44;5039657;28;1120;-47
2023/03/12 09:54:06;;;;;;;;;;;;;;;16.99;47.15;100404.91;5039327;28;1208;-46
2023/03/12 09:56:32;;;;;;;;;;;;;;;16.49;47.56;100417.78;5056962;28;1024;-48
2023/03/12 09:58:57;;;;;;;;;;;;;;;18.31;44.78;100416.88;5055852;28;960;-48
2023/03/12 10:01:35;;;;;;;;;;;;;;;16.89;47.26;100416.78;5056905;28;1028;-44
2023/03/12 10:04:19;;;;;;;;;;;;;;;16.52;46.83;100419.97;5039153;28;1140;-48
2023/03/12 10:06:56;;;;;;;;;;;;;;;16.40;46.58;100423.84;5043856;28;1906;-45
2023/03/12 10:09:36;;;;;;;;;;;;;;;17.79;45.80;100422.94;5039001;28;1092;-46
2023/03/12 10:12:20;;;;;;;;;;;;;;;16.72;47.32;100419.06;5056741;28;1224;-45
2023/03/12 10:14:56;;;;;;;;;;;;;;;17.17;47.15;100432.81;5056240;28;1021;-45
2023/03/12 10:17:31;;;;;;;;;;;;;;;16.93;47.24;100434.31;5056237;28;1048;-46
2023/03/12 10:20:16;;;;;;;;;;;;;;;16.52;47.14;100430.94;5038957;28;1251;-46
2023/03/12 10:22:45;;;;;;;;;;;;;;;17.54;46.16;100428.66;5042028;28;1364;-46
2023/03/12 10:25:27;;;;;;;;;;;;;;;16.61;47.30;100437.50;5056733;28;1971;-49
2023/03/12 10:27:54;;;;;;;;;;;;;;;18.32;45.00;100435.03;5038344;28;1037;-48
2023/03/12 10:30:22;;;;;;;;;;;;;;;17.58;46.27;100443.47;5038643;28;1172;-50
2023/03/12 10:32:48;;;;;;;;;;;;;;;16.88;46.97;100441.75;5056407;28;1016;-44
2023/03/12 10:35:15;;;;;;;;;;;;;;;16.57;46.55;100437.22;5038082;28;901;-45
2023/03/12 10:37:51;;;;;;;;;;;;;;;16.91;46.92;100441.19;5056398;28;1193;-47
2023/03/12 10:40:23;;;;;;;;;;;;;;;16.79;47.24;100437.94;5038449;28;1056;-51
2023/03/12 10:42:49;;;;;;;;;;;;;;;16.48;46.93;100429.84;5056436;28;1171;-49
2023/03/12 10:45:24;;;;;;;;;;;;;;;17.40;46.21;100426.59;5055558;28;1921;-47
2023/03/12 10:47:51;;;;;;;;;;;;;;;16.60;47.05;100441.34;5056223;28;1107;-47
2023/03/12 10:50:20;;;;;;;;;;;;;;;17.15;47.08;100437.75;5055942;28;1140;-43
2023/03/12 10:52:46;;;;;;;;;;;;;;;17.09;46.91;100435.03;5055782;28;1029;-46
2023/03/12 10:55:18;;;;;;;;;;;;;;;16.56;47.32;100434.75;5056300;28;1116;-46
2023/03/12 10:57:43;;;;;;;;;;;;;;;16.39;46.47;100440.59;5055230;28;1168;-51
2023/03/12 11:00:16;;;;;;;;;;;;;;;16.17;46.19;100439.03;5038436;28;1195;-49
2023/03/12 11:02:42;;;;;;;;;;;;;;;17.30;46.74;100450.56;5056111;28;1120;-51
2023/03/12 11:05:19;;;;;;;;;;;;;;;16.56;47.34;100435.59;5055899;28;1497;-48
2023/03/12 11:07:44;;;;;;;;;;;;;;;16.67;47.47;100439.09;5055721;28;1218;-41
2023/03/12 11:10:10;;;;;;;;;;;;;;;16.74;47.36;100436.84;5055221;28;1060;-42
2023/03/12 11:12:36;;;;;;;;;;;;;;;16.30;47.38;100434.88;5055809;28;1254;-48
2023/03/12 11:15:21;;;;;;;;;;;;;;;16.68;47.08;100440.75;5056036;28;1106;-46
2023/03/12 11:17:46;;;;;;;;;;;;;;;16.66;47.26;100437.47;5056028;28;1120;-50
2023/03/12 11:20:25;;;;;;;;;;;;;;;16.31;47.17;100438.44;5055446;28;1144;-45
2023/03/12 11:22:51;;;;;;;;;;;;;;;17.19;46.50;100438.81;5055328;28;919;-46
2023/03/12 11:25:34;;;;;;;;;;;;;;;16.50;47.02;100446.88;5055843;28;1983;-44
2023/03/12 11:27:59;;;;;;;;;;;;;;;17.00;46.80;100442.25;5055810;28;866;-49
2023/03/12 11:30:28;;;;;;;;;;;;;;;16.96;47.03;100443.94;5037377;28;1022;-50
2023/03/12 11:32:56;;;;;;;;;;;;;;;16.42;47.21;100446.38;5038096;28;1112;-53
2023/03/12 11:35:40;;;;;;;;;;;;;;;16.28;46.33;100444.50;5037577;28;1033;-52
2023/03/12 11:38:19;;;;;;;;;;;;;;;17.35;46.41;100445.84;5055762;28;1103;-50
2023/03/12 11:40:55;;;;;;;;;;;;;;;16.58;47.40;100444.38;5022212;28;1097;-53
2023/03/12 11:43:21;;;;;;;;;;;;;;;17.35;46.40;100447.75;5033562;28;1013;-53
2023/03/12 11:46:05;;;;;;;;;;;;;;;17.37;46.63;100449.13;5055252;28;1902;-48
2023/03/12 11:48:53;;;;;;;;;;;;;;;16.56;47.34;100446.59;5055576;28;1167;-46
2023/03/12 11:51:35;;;;;;;;;;;;;;;17.96;45.72;100454.69;5047103;28;1492;-49
2023/03/12 11:54:15;;;;;;;;;;;;;;;16.76;47.51;100455.81;5055622;28;1227;-49
2023/03/12 11:56:41;;;;;;;;;;;;;;;16.48;46.88;100454.56;5043650;28;1037;-49
2023/03/12 11:59:09;;;;;;;;;;;;;;;18.06;45.45;100454.59;5055208;28;1117;-48
2023/03/12 12:01:35;;;;;;;;;;;;;;;16.84;47.49;100462.63;5055613;28;1143;-51
2023/03/12 12:04:13;;;;;;;;;;;;;;;16.50;47.08;100460.59;5055205;28;1028;-48
2023/03/12 12:06:39;;;;;;;;;;;;;;;16.68;47.38;100457.22;5040887;28;1894;-48
2023/03/12 12:09:16;;;;;;;;;;;;;;;17.07;47.09;100464.72;5059093;28;1035;-44
2023/03/12 12:11:58;;;;;;;;;;;;;;;16.56;47.09;100462.22;5071390;28;905;-47
2023/03/12 12:14:44;;;;;;;;;;;;;;;17.86;45.88;100463.00;5041275;28;1119;-50
2023/03/12 12:17:09;;;;;;;;;;;;;;;16.72;47.40;100461.03;5058335;28;1766;-50
2023/03/12 12:19:35;;;;;;;;;;;;;;;16.43;47.11;100461.72;5059099;28;1127;-51
2023/03/12 12:22:19;;;;;;;;;;;;;;;16.25;46.77;100462.31;5058670;28;1036;-53
2023/03/12 12:24:59;;;;;;;;;;;;;;;16.58;46.64;100471.81;5058921;28;1013;-48
2023/03/12 12:27:26;;;;;;;;;;;;;;;16.83;47.36;100466.47;5058843;28;1980;-50
2023/03/12 12:29:55;;;;;;;;;;;;;;;16.75;47.76;100473.41;5047246;28;1107;-51
2023/03/12 12:32:22;;;;;;;;;;;;;;;18.11;45.41;100478.47;5064406;28;1072;-51
2023/03/12 12:34:52;;;;;;;;;;;;;;;16.81;47.67;100475.00;5039519;28;1172;-46
2023/03/12 12:37:17;;;;;;;;;;;;;;;16.56;47.09;100475.94;5058083;28;1071;-49
2023/03/12 12:40:03;;;;;;;;;;;;;;;17.11;47.38;100478.72;5058197;28;1013;-48
2023/03/12 12:42:30;;;;;;;;;;;;;;;16.73;47.56;100490.16;5057684;28;1060;-54
2023/03/12 12:44:56;;;;;;;;;;;;;;;16.47;47.40;100485.88;5039594;28;1291;-53
2023/03/12 12:47:35;;;;;;;;;;;;;;;17.75;46.01;100498.88;5056208;28;1913;-50
2023/03/12 12:50:00;;;;;;;;;;;;;;;16.79;47.39;100499.19;5040233;28;1025;-53
2023/03/12 12:52:26;;;;;;;;;;;;;;;16.57;47.32;100503.09;5039431;28;1131;-50